sensor_id;sensor_type;location;lat;lon;timestamp;P1;durP1;ratioP1;P2;durP2;ratioP2
78426;SDS011;67722;50.204;8.570;2023-03-05T00:01:18;8.85;;;4.63;;
78426;SDS011;67722;50.204;8.570;2023-03-05T00:03:48;8.80;;;4.25;;
78426;SDS011;67722;50.204;8.570;2023-03-05T00:06:16;7.50;;;3.78;;
78426;SDS011;67722;50.204;8.570;2023-03-05T00:08:42;8.45;;;4.47;;
78426;SDS011;67722;50.204;8.570;2023-03-05T00:11:09;7.30;;;3.22;;
78426;SDS011;67722;50.204;8.570;2023-03-05T00:13:36;8.13;;;4.80;;
78426;SDS011;67722;50.204;8.570;2023-03-05T00:16:03;6.60;;;4.30;;
78426;SDS011;67722;50.204;8.570;2023-03-05T00:18:33;14.55;;;4.97;;
78426;SDS011;67722;50.204;8.570;2023-03-05T00:20:58;9.68;;;4.53;;
78426;SDS011;67722;50.204;8.570;2023-03-05T00:23:24;12.18;;;5.10;;
78426;SDS011;67722;50.204;8.570;2023-03-05T00:25:49;7.50;;;5.03;;
78426;SDS011;67722;50.204;8.570;2023-03-05T00:28:15;11.20;;;5.43;;
78426;SDS011;67722;50.204;8.570;2023-03-05T00:30:40;7.03;;;5.10;;
78426;SDS011;67722;50.204;8.570;2023-03-05T00:33:06;7.60;;;3.42;;
78426;SDS011;67722;50.204;8.570;2023-03-05T00:35:37;10.95;;;3.45;;
78426;SDS011;67722;50.204;8.570;2023-03-05T00:38:04;8.57;;;3.78;;
78426;SDS011;67722;50.204;8.570;2023-03-05T00:40:29;12.75;;;4.35;;
78426;SDS011;67722;50.204;8.570;2023-03-05T00:42:54;5.90;;;2.70;;
78426;SDS011;67722;50.204;8.570;2023-03-05T00:45:20;8.52;;;3.55;;
78426;SDS011;67722;50.204;8.570;2023-03-05T00:47:45;4.33;;;2.53;;
78426;SDS011;67722;50.204;8.570;2023-03-05T00:50:10;5.97;;;3.47;;
78426;SDS011;67722;50.204;8.570;2023-03-05T00:52:36;8.02;;;3.60;;
78426;SDS011;67722;50.204;8.570;2023-03-05T00:55:01;5.97;;;3.80;;
78426;SDS011;67722;50.204;8.570;2023-03-05T00:57:26;8.17;;;2.40;;
78426;SDS011;67722;50.204;8.570;2023-03-05T00:59:52;9.80;;;3.93;;
78426;SDS011;67722;50.204;8.570;2023-03-05T01:02:17;6.47;;;3.63;;
78426;SDS011;67722;50.204;8.570;2023-03-05T01:04:43;5.15;;;3.55;;
78426;SDS011;67722;50.204;8.570;2023-03-05T01:07:11;4.30;;;3.25;;
78426;SDS011;67722;50.204;8.570;2023-03-05T01:09:36;5.88;;;2.78;;
78426;SDS011;67722;50.204;8.570;2023-03-05T01:12:01;4.28;;;2.38;;
78426;SDS011;67722;50.204;8.570;2023-03-05T01:14:27;5.57;;;3.10;;
78426;SDS011;67722;50.204;8.570;2023-03-05T01:16:53;5.72;;;3.25;;
78426;SDS011;67722;50.204;8.570;2023-03-05T01:19:18;7.20;;;2.80;;
78426;SDS011;67722;50.204;8.570;2023-03-05T01:21:43;6.93;;;3.38;;
78426;SDS011;67722;50.204;8.570;2023-03-05T01:24:09;8.80;;;2.35;;
78426;SDS011;67722;50.204;8.570;2023-03-05T01:26:34;5.15;;;3.03;;
78426;SDS011;67722;50.204;8.570;2023-03-05T01:29:00;8.90;;;2.87;;
78426;SDS011;67722;50.204;8.570;2023-03-05T01:31:26;7.57;;;2.55;;
78426;SDS011;67722;50.204;8.570;2023-03-05T01:33:51;6.38;;;3.55;;
78426;SDS011;67722;50.204;8.570;2023-03-05T01:36:17;4.78;;;2.90;;
78426;SDS011;67722;50.204;8.570;2023-03-05T01:38:43;5.50;;;2.20;;
78426;SDS011;67722;50.204;8.570;2023-03-05T01:41:10;6.30;;;3.00;;
78426;SDS011;67722;50.204;8.570;2023-03-05T01:43:36;7.45;;;3.08;;
78426;SDS011;67722;50.204;8.570;2023-03-05T01:52:00;5.63;;;2.70;;
78426;SDS011;67722;50.204;8.570;2023-03-05T01:54:31;4.82;;;3.08;;
78426;SDS011;67722;50.204;8.570;2023-03-05T01:56:58;7.78;;;3.25;;
78426;SDS011;67722;50.204;8.570;2023-03-05T01:59:26;5.15;;;2.45;;
78426;SDS011;67722;50.204;8.570;2023-03-05T02:01:53;4.57;;;2.40;;
78426;SDS011;67722;50.204;8.570;2023-03-05T02:04:20;5.53;;;2.40;;
78426;SDS011;67722;50.204;8.570;2023-03-05T02:06:48;5.88;;;2.47;;
78426;SDS011;67722;50.204;8.570;2023-03-05T02:09:14;5.72;;;2.80;;
78426;SDS011;67722;50.204;8.570;2023-03-05T02:11:40;5.18;;;2.45;;
78426;SDS011;67722;50.204;8.570;2023-03-05T02:14:05;5.65;;;2.63;;
78426;SDS011;67722;50.204;8.570;2023-03-05T02:16:31;5.50;;;1.85;;
78426;SDS011;67722;50.204;8.570;2023-03-05T02:19:05;3.35;;;1.70;;
78426;SDS011;67722;50.204;8.570;2023-03-05T02:21:42;5.70;;;2.85;;
78426;SDS011;67722;50.204;8.570;2023-03-05T02:24:10;5.82;;;2.70;;
78426;SDS011;67722;50.204;8.570;2023-03-05T02:26:37;4.45;;;2.15;;
78426;SDS011;67722;50.204;8.570;2023-03-05T02:29:02;4.45;;;2.65;;
78426;SDS011;67722;50.204;8.570;2023-03-05T02:31:29;5.80;;;2.90;;
78426;SDS011;67722;50.204;8.570;2023-03-05T02:33:55;4.82;;;2.58;;
78426;SDS011;67722;50.204;8.570;2023-03-05T02:36:21;4.28;;;1.63;;
78426;SDS011;67722;50.204;8.570;2023-03-05T02:38:46;6.45;;;2.45;;
78426;SDS011;67722;50.204;8.570;2023-03-05T02:41:12;3.05;;;2.63;;
78426;SDS011;67722;50.204;8.570;2023-03-05T02:43:38;8.05;;;2.95;;
78426;SDS011;67722;50.204;8.570;2023-03-05T02:46:03;3.90;;;2.67;;
78426;SDS011;67722;50.204;8.570;2023-03-05T02:48:29;8.70;;;3.00;;
78426;SDS011;67722;50.204;8.570;2023-03-05T02:50:54;5.47;;;2.95;;
78426;SDS011;67722;50.204;8.570;2023-03-05T02:53:20;3.90;;;2.50;;
78426;SDS011;67722;50.204;8.570;2023-03-05T02:55:47;7.15;;;3.60;;
78426;SDS011;67722;50.204;8.570;2023-03-05T02:58:12;4.80;;;2.25;;
78426;SDS011;67722;50.204;8.570;2023-03-05T03:00:38;6.97;;;2.75;;
78426;SDS011;67722;50.204;8.570;2023-03-05T03:03:03;4.73;;;2.97;;
78426;SDS011;67722;50.204;8.570;2023-03-05T03:05:28;5.63;;;3.13;;
78426;SDS011;67722;50.204;8.570;2023-03-05T03:07:54;7.70;;;3.83;;
78426;SDS011;67722;50.204;8.570;2023-03-05T03:10:19;9.05;;;4.15;;
78426;SDS011;67722;50.204;8.570;2023-03-05T03:12:45;6.60;;;3.70;;
78426;SDS011;67722;50.204;8.570;2023-03-05T03:15:12;8.25;;;3.40;;
78426;SDS011;67722;50.204;8.570;2023-03-05T03:17:38;5.18;;;3.42;;
78426;SDS011;67722;50.204;8.570;2023-03-05T03:20:04;8.85;;;3.30;;
78426;SDS011;67722;50.204;8.570;2023-03-05T03:22:31;8.02;;;3.05;;
78426;SDS011;67722;50.204;8.570;2023-03-05T03:24:57;5.10;;;3.95;;
78426;SDS011;67722;50.204;8.570;2023-03-05T03:27:22;8.00;;;3.47;;
78426;SDS011;67722;50.204;8.570;2023-03-05T03:29:48;5.32;;;2.63;;
78426;SDS011;67722;50.204;8.570;2023-03-05T03:32:13;10.23;;;4.30;;
78426;SDS011;67722;50.204;8.570;2023-03-05T03:34:39;5.00;;;3.20;;
78426;SDS011;67722;50.204;8.570;2023-03-05T03:37:04;6.22;;;3.47;;
78426;SDS011;67722;50.204;8.570;2023-03-05T03:39:30;8.93;;;3.30;;
78426;SDS011;67722;50.204;8.570;2023-03-05T03:41:55;10.67;;;3.50;;
78426;SDS011;67722;50.204;8.570;2023-03-05T03:44:20;10.30;;;3.70;;
78426;SDS011;67722;50.204;8.570;2023-03-05T03:46:46;5.90;;;2.88;;
78426;SDS011;67722;50.204;8.570;2023-03-05T03:49:22;9.43;;;3.70;;
78426;SDS011;67722;50.204;8.570;2023-03-05T03:51:49;5.80;;;2.67;;
78426;SDS011;67722;50.204;8.570;2023-03-05T03:54:15;7.07;;;2.85;;
78426;SDS011;67722;50.204;8.570;2023-03-05T03:56:42;9.05;;;3.00;;
78426;SDS011;67722;50.204;8.570;2023-03-05T03:59:08;3.58;;;2.03;;
78426;SDS011;67722;50.204;8.570;2023-03-05T04:01:34;5.17;;;2.07;;
78426;SDS011;67722;50.204;8.570;2023-03-05T04:03:59;3.30;;;2.17;;
78426;SDS011;67722;50.204;8.570;2023-03-05T04:06:25;6.07;;;2.83;;
78426;SDS011;67722;50.204;8.570;2023-03-05T04:08:50;4.35;;;1.92;;
78426;SDS011;67722;50.204;8.570;2023-03-05T04:11:15;6.53;;;2.27;;
78426;SDS011;67722;50.204;8.570;2023-03-05T04:13:43;5.45;;;2.75;;
78426;SDS011;67722;50.204;8.570;2023-03-05T04:16:09;5.88;;;2.75;;
78426;SDS011;67722;50.204;8.570;2023-03-05T04:18:34;10.13;;;2.00;;
78426;SDS011;67722;50.204;8.570;2023-03-05T04:20:59;6.20;;;2.27;;
78426;SDS011;67722;50.204;8.570;2023-03-05T04:23:25;7.20;;;2.17;;
78426;SDS011;67722;50.204;8.570;2023-03-05T04:25:50;3.80;;;1.70;;
78426;SDS011;67722;50.204;8.570;2023-03-05T04:28:15;3.23;;;1.63;;
78426;SDS011;67722;50.204;8.570;2023-03-05T04:30:41;4.43;;;1.90;;
78426;SDS011;67722;50.204;8.570;2023-03-05T04:33:07;7.43;;;2.00;;
78426;SDS011;67722;50.204;8.570;2023-03-05T04:35:32;3.03;;;2.20;;
78426;SDS011;67722;50.204;8.570;2023-03-05T04:37:57;3.63;;;2.03;;
78426;SDS011;67722;50.204;8.570;2023-03-05T04:40:23;5.13;;;1.50;;
78426;SDS011;67722;50.204;8.570;2023-03-05T04:42:48;2.57;;;1.70;;
78426;SDS011;67722;50.204;8.570;2023-03-05T04:45:13;2.30;;;1.17;;
78426;SDS011;67722;50.204;8.570;2023-03-05T04:47:41;2.92;;;1.23;;
78426;SDS011;67722;50.204;8.570;2023-03-05T04:50:07;3.47;;;0.90;;
78426;SDS011;67722;50.204;8.570;2023-03-05T04:52:32;2.72;;;1.33;;
78426;SDS011;67722;50.204;8.570;2023-03-05T04:54:58;0.97;;;0.77;;
78426;SDS011;67722;50.204;8.570;2023-03-05T04:57:23;1.87;;;0.50;;
78426;SDS011;67722;50.204;8.570;2023-03-05T04:59:48;5.07;;;1.50;;
78426;SDS011;67722;50.204;8.570;2023-03-05T05:02:14;1.53;;;0.40;;
78426;SDS011;67722;50.204;8.570;2023-03-05T05:04:39;1.00;;;0.90;;
78426;SDS011;67722;50.204;8.570;2023-03-05T05:07:08;3.03;;;1.25;;
78426;SDS011;67722;50.204;8.570;2023-03-05T05:09:34;1.45;;;0.80;;
78426;SDS011;67722;50.204;8.570;2023-03-05T05:11:59;1.20;;;1.10;;
78426;SDS011;67722;50.204;8.570;2023-03-05T05:14:25;1.33;;;0.70;;
78426;SDS011;67722;50.204;8.570;2023-03-05T05:16:50;2.50;;;1.33;;
78426;SDS011;67722;50.204;8.570;2023-03-05T05:19:15;3.00;;;1.30;;
78426;SDS011;67722;50.204;8.570;2023-03-05T05:21:41;1.93;;;1.00;;
78426;SDS011;67722;50.204;8.570;2023-03-05T05:24:06;4.05;;;2.22;;
78426;SDS011;67722;50.204;8.570;2023-03-05T05:26:31;2.92;;;1.63;;
78426;SDS011;67722;50.204;8.570;2023-03-05T05:28:57;2.27;;;0.60;;
78426;SDS011;67722;50.204;8.570;2023-03-05T05:31:22;4.63;;;2.40;;
78426;SDS011;67722;50.204;8.570;2023-03-05T05:33:47;3.47;;;1.37;;
78426;SDS011;67722;50.204;8.570;2023-03-05T05:36:13;1.30;;;1.10;;
78426;SDS011;67722;50.204;8.570;2023-03-05T05:38:40;1.30;;;1.08;;
78426;SDS011;67722;50.204;8.570;2023-03-05T05:41:10;1.95;;;1.35;;
78426;SDS011;67722;50.204;8.570;2023-03-05T05:43:36;1.70;;;1.60;;
78426;SDS011;67722;50.204;8.570;2023-03-05T05:46:03;4.68;;;1.10;;
78426;SDS011;67722;50.204;8.570;2023-03-05T05:48:30;1.20;;;0.88;;
78426;SDS011;67722;50.204;8.570;2023-03-05T05:50:56;0.98;;;0.82;;
78426;SDS011;67722;50.204;8.570;2023-03-05T05:53:22;1.52;;;1.27;;
78426;SDS011;67722;50.204;8.570;2023-03-05T05:55:48;3.00;;;0.95;;
78426;SDS011;67722;50.204;8.570;2023-03-05T05:58:13;4.65;;;1.10;;
78426;SDS011;67722;50.204;8.570;2023-03-05T06:00:39;2.17;;;0.95;;
78426;SDS011;67722;50.204;8.570;2023-03-05T06:03:04;4.32;;;1.42;;
78426;SDS011;67722;50.204;8.570;2023-03-05T06:05:29;1.48;;;0.80;;
78426;SDS011;67722;50.204;8.570;2023-03-05T06:07:55;2.78;;;2.03;;
78426;SDS011;67722;50.204;8.570;2023-03-05T06:10:20;1.93;;;1.63;;
78426;SDS011;67722;50.204;8.570;2023-03-05T06:12:45;1.42;;;0.75;;
78426;SDS011;67722;50.204;8.570;2023-03-05T06:15:11;2.28;;;1.25;;
78426;SDS011;67722;50.204;8.570;2023-03-05T06:17:36;2.00;;;1.27;;
78426;SDS011;67722;50.204;8.570;2023-03-05T06:20:02;3.30;;;1.63;;
78426;SDS011;67722;50.204;8.570;2023-03-05T06:22:28;1.27;;;1.10;;
78426;SDS011;67722;50.204;8.570;2023-03-05T06:24:53;2.90;;;1.10;;
78426;SDS011;67722;50.204;8.570;2023-03-05T06:27:19;2.10;;;1.40;;
78426;SDS011;67722;50.204;8.570;2023-03-05T06:29:44;2.80;;;1.50;;
78426;SDS011;67722;50.204;8.570;2023-03-05T06:32:09;7.77;;;2.03;;
78426;SDS011;67722;50.204;8.570;2023-03-05T06:34:35;2.43;;;1.20;;
78426;SDS011;67722;50.204;8.570;2023-03-05T06:37:00;3.30;;;0.83;;
78426;SDS011;67722;50.204;8.570;2023-03-05T06:39:25;2.73;;;1.63;;
78426;SDS011;67722;50.204;8.570;2023-03-05T06:41:51;2.35;;;1.33;;
78426;SDS011;67722;50.204;8.570;2023-03-05T06:44:16;4.95;;;1.73;;
78426;SDS011;67722;50.204;8.570;2023-03-05T06:46:42;3.90;;;1.70;;
78426;SDS011;67722;50.204;8.570;2023-03-05T06:49:07;2.63;;;2.03;;
78426;SDS011;67722;50.204;8.570;2023-03-05T06:51:35;3.60;;;1.98;;
78426;SDS011;67722;50.204;8.570;2023-03-05T06:54:03;3.08;;;1.80;;
78426;SDS011;67722;50.204;8.570;2023-03-05T06:56:30;2.30;;;1.40;;
78426;SDS011;67722;50.204;8.570;2023-03-05T06:58:55;5.18;;;2.33;;
78426;SDS011;67722;50.204;8.570;2023-03-05T07:01:21;4.78;;;1.83;;
78426;SDS011;67722;50.204;8.570;2023-03-05T07:03:53;4.20;;;1.60;;
78426;SDS011;67722;50.204;8.570;2023-03-05T07:06:19;3.95;;;2.45;;
78426;SDS011;67722;50.204;8.570;2023-03-05T07:08:45;6.75;;;2.40;;
78426;SDS011;67722;50.204;8.570;2023-03-05T07:11:12;5.78;;;2.10;;
78426;SDS011;67722;50.204;8.570;2023-03-05T07:13:39;4.20;;;2.72;;
78426;SDS011;67722;50.204;8.570;2023-03-05T07:16:05;5.05;;;1.85;;
78426;SDS011;67722;50.204;8.570;2023-03-05T07:18:32;5.93;;;2.80;;
78426;SDS011;67722;50.204;8.570;2023-03-05T07:21:01;4.75;;;2.58;;
78426;SDS011;67722;50.204;8.570;2023-03-05T07:23:27;6.03;;;2.72;;
78426;SDS011;67722;50.204;8.570;2023-03-05T07:25:53;5.32;;;3.05;;
78426;SDS011;67722;50.204;8.570;2023-03-05T07:28:18;8.75;;;3.75;;
78426;SDS011;67722;50.204;8.570;2023-03-05T07:30:43;8.77;;;3.38;;
78426;SDS011;67722;50.204;8.570;2023-03-05T07:33:09;5.15;;;3.08;;
78426;SDS011;67722;50.204;8.570;2023-03-05T07:35:38;5.95;;;3.13;;
78426;SDS011;67722;50.204;8.570;2023-03-05T07:38:04;4.22;;;3.72;;
78426;SDS011;67722;50.204;8.570;2023-03-05T07:40:29;9.40;;;3.27;;
78426;SDS011;67722;50.204;8.570;2023-03-05T07:42:55;10.37;;;4.43;;
78426;SDS011;67722;50.204;8.570;2023-03-05T07:45:20;5.50;;;3.15;;
78426;SDS011;67722;50.204;8.570;2023-03-05T07:47:45;6.85;;;3.85;;
78426;SDS011;67722;50.204;8.570;2023-03-05T07:50:11;7.33;;;4.43;;
78426;SDS011;67722;50.204;8.570;2023-03-05T07:52:36;5.72;;;3.40;;
78426;SDS011;67722;50.204;8.570;2023-03-05T07:55:02;7.75;;;4.15;;
78426;SDS011;67722;50.204;8.570;2023-03-05T07:57:27;8.23;;;3.78;;
78426;SDS011;67722;50.204;8.570;2023-03-05T07:59:53;6.93;;;3.78;;
78426;SDS011;67722;50.204;8.570;2023-03-05T08:02:19;9.05;;;4.57;;
78426;SDS011;67722;50.204;8.570;2023-03-05T08:04:45;4.75;;;3.40;;
78426;SDS011;67722;50.204;8.570;2023-03-05T08:07:12;7.27;;;4.53;;
78426;SDS011;67722;50.204;8.570;2023-03-05T08:09:38;10.55;;;4.82;;
78426;SDS011;67722;50.204;8.570;2023-03-05T08:12:06;8.38;;;3.88;;
78426;SDS011;67722;50.204;8.570;2023-03-05T08:14:33;10.35;;;3.78;;
78426;SDS011;67722;50.204;8.570;2023-03-05T08:16:59;7.50;;;4.10;;
78426;SDS011;67722;50.204;8.570;2023-03-05T08:19:24;7.80;;;3.60;;
78426;SDS011;67722;50.204;8.570;2023-03-05T08:21:49;9.27;;;3.80;;
78426;SDS011;67722;50.204;8.570;2023-03-05T08:24:15;9.32;;;3.58;;
78426;SDS011;67722;50.204;8.570;2023-03-05T08:26:40;3.90;;;2.92;;
78426;SDS011;67722;50.204;8.570;2023-03-05T08:29:06;6.28;;;3.55;;
78426;SDS011;67722;50.204;8.570;2023-03-05T08:31:33;8.98;;;3.85;;
78426;SDS011;67722;50.204;8.570;2023-03-05T08:33:59;8.60;;;4.43;;
78426;SDS011;67722;50.204;8.570;2023-03-05T08:36:26;7.07;;;4.50;;
78426;SDS011;67722;50.204;8.570;2023-03-05T08:38:52;8.90;;;4.82;;
78426;SDS011;67722;50.204;8.570;2023-03-05T08:41:18;9.67;;;4.57;;
78426;SDS011;67722;50.204;8.570;2023-03-05T08:43:43;7.55;;;4.72;;
78426;SDS011;67722;50.204;8.570;2023-03-05T08:46:09;6.95;;;3.33;;
78426;SDS011;67722;50.204;8.570;2023-03-05T08:48:36;8.60;;;4.20;;
78426;SDS011;67722;50.204;8.570;2023-03-05T08:51:08;8.32;;;4.70;;
78426;SDS011;67722;50.204;8.570;2023-03-05T08:53:35;6.63;;;3.72;;
78426;SDS011;67722;50.204;8.570;2023-03-05T08:56:01;7.70;;;3.30;;
78426;SDS011;67722;50.204;8.570;2023-03-05T08:58:26;9.52;;;5.28;;
78426;SDS011;67722;50.204;8.570;2023-03-05T09:00:51;8.38;;;5.10;;
78426;SDS011;67722;50.204;8.570;2023-03-05T09:03:17;7.77;;;4.10;;
78426;SDS011;67722;50.204;8.570;2023-03-05T09:05:43;16.80;;;4.72;;
78426;SDS011;67722;50.204;8.570;2023-03-05T09:08:08;12.67;;;7.47;;
78426;SDS011;67722;50.204;8.570;2023-03-05T09:10:33;8.88;;;4.05;;
78426;SDS011;67722;50.204;8.570;2023-03-05T09:12:59;8.77;;;5.07;;
78426;SDS011;67722;50.204;8.570;2023-03-05T09:15:24;8.15;;;3.85;;
78426;SDS011;67722;50.204;8.570;2023-03-05T09:17:50;6.57;;;3.85;;
78426;SDS011;67722;50.204;8.570;2023-03-05T09:20:15;8.57;;;3.97;;
78426;SDS011;67722;50.204;8.570;2023-03-05T09:22:40;6.53;;;4.88;;
78426;SDS011;67722;50.204;8.570;2023-03-05T09:25:07;6.97;;;4.32;;
78426;SDS011;67722;50.204;8.570;2023-03-05T09:27:33;7.13;;;3.80;;
78426;SDS011;67722;50.204;8.570;2023-03-05T09:29:59;7.60;;;3.30;;
78426;SDS011;67722;50.204;8.570;2023-03-05T09:32:25;7.22;;;2.42;;
78426;SDS011;67722;50.204;8.570;2023-03-05T09:34:50;7.97;;;3.60;;
78426;SDS011;67722;50.204;8.570;2023-03-05T09:37:15;9.00;;;4.07;;
78426;SDS011;67722;50.204;8.570;2023-03-05T09:39:41;7.50;;;3.83;;
78426;SDS011;67722;50.204;8.570;2023-03-05T09:47:45;5.63;;;2.17;;
78426;SDS011;67722;50.204;8.570;2023-03-05T09:52:56;5.85;;;2.70;;
78426;SDS011;67722;50.204;8.570;2023-03-05T09:55:46;10.20;;;5.38;;
78426;SDS011;67722;50.204;8.570;2023-03-05T09:58:21;5.43;;;2.60;;
78426;SDS011;67722;50.204;8.570;2023-03-05T10:00:56;3.45;;;1.48;;
78426;SDS011;67722;50.204;8.570;2023-03-05T10:03:34;3.92;;;2.13;;
78426;SDS011;67722;50.204;8.570;2023-03-05T10:06:24;4.78;;;2.65;;
78426;SDS011;67722;50.204;8.570;2023-03-05T10:11:37;3.65;;;2.50;;
78426;SDS011;67722;50.204;8.570;2023-03-05T10:14:04;7.22;;;4.10;;
78426;SDS011;67722;50.204;8.570;2023-03-05T10:19:31;6.38;;;3.28;;
78426;SDS011;67722;50.204;8.570;2023-03-05T10:22:22;5.70;;;3.22;;
78426;SDS011;67722;50.204;8.570;2023-03-05T10:24:52;9.18;;;4.10;;
78426;SDS011;67722;50.204;8.570;2023-03-05T10:32:35;7.25;;;3.65;;
78426;SDS011;67722;50.204;8.570;2023-03-05T10:40:25;8.02;;;3.63;;
78426;SDS011;67722;50.204;8.570;2023-03-05T10:45:55;8.75;;;3.20;;
78426;SDS011;67722;50.204;8.570;2023-03-05T10:51:20;9.02;;;3.88;;
78426;SDS011;67722;50.204;8.570;2023-03-05T10:53:54;6.38;;;3.30;;
78426;SDS011;67722;50.204;8.570;2023-03-05T10:56:21;6.65;;;4.05;;
78426;SDS011;67722;50.204;8.570;2023-03-05T10:58:48;6.93;;;2.17;;
78426;SDS011;67722;50.204;8.570;2023-03-05T11:04:05;6.78;;;3.45;;
78426;SDS011;67722;50.204;8.570;2023-03-05T11:11:42;4.80;;;1.98;;
78426;SDS011;67722;50.204;8.570;2023-03-05T11:14:22;7.10;;;3.58;;
78426;SDS011;67722;50.204;8.570;2023-03-05T11:16:54;6.43;;;2.95;;
78426;SDS011;67722;50.204;8.570;2023-03-05T11:19:27;6.72;;;3.28;;
78426;SDS011;67722;50.204;8.570;2023-03-05T11:24:30;9.63;;;4.00;;
78426;SDS011;67722;50.204;8.570;2023-03-05T11:26:55;10.07;;;4.47;;
78426;SDS011;67722;50.204;8.570;2023-03-05T11:31:48;10.20;;;4.07;;
78426;SDS011;67722;50.204;8.570;2023-03-05T11:37:03;6.38;;;3.65;;
78426;SDS011;67722;50.204;8.570;2023-03-05T11:39:30;8.45;;;2.80;;
78426;SDS011;67722;50.204;8.570;2023-03-05T11:42:00;4.68;;;3.13;;
78426;SDS011;67722;50.204;8.570;2023-03-05T11:47:22;8.02;;;3.22;;
78426;SDS011;67722;50.204;8.570;2023-03-05T11:50:37;6.45;;;2.55;;
78426;SDS011;67722;50.204;8.570;2023-03-05T11:58:24;6.87;;;3.70;;
78426;SDS011;67722;50.204;8.570;2023-03-05T12:01:09;3.90;;;1.85;;
78426;SDS011;67722;50.204;8.570;2023-03-05T12:03:38;3.88;;;1.52;;
78426;SDS011;67722;50.204;8.570;2023-03-05T12:06:17;3.88;;;1.92;;
78426;SDS011;67722;50.204;8.570;2023-03-05T12:12:15;3.85;;;2.45;;
78426;SDS011;67722;50.204;8.570;2023-03-05T12:15:17;3.10;;;2.15;;
78426;SDS011;67722;50.204;8.570;2023-03-05T12:21:05;2.60;;;1.80;;
78426;SDS011;67722;50.204;8.570;2023-03-05T12:23:44;4.78;;;4.07;;
78426;SDS011;67722;50.204;8.570;2023-03-05T12:26:10;3.45;;;1.92;;
78426;SDS011;67722;50.204;8.570;2023-03-05T12:31:43;3.35;;;2.10;;
78426;SDS011;67722;50.204;8.570;2023-03-05T12:37:06;2.65;;;1.45;;
78426;SDS011;67722;50.204;8.570;2023-03-05T12:40:21;2.22;;;1.42;;
78426;SDS011;67722;50.204;8.570;2023-03-05T12:47:43;5.90;;;2.58;;
78426;SDS011;67722;50.204;8.570;2023-03-05T13:06:38;2.13;;;1.27;;
78426;SDS011;67722;50.204;8.570;2023-03-05T13:09:14;3.22;;;1.83;;
78426;SDS011;67722;50.204;8.570;2023-03-05T13:11:40;3.13;;;2.05;;
78426;SDS011;67722;50.204;8.570;2023-03-05T13:15:07;2.35;;;1.63;;
78426;SDS011;67722;50.204;8.570;2023-03-05T13:17:26;2.83;;;2.13;;
78426;SDS011;67722;50.204;8.570;2023-03-05T13:19:52;2.58;;;1.77;;
78426;SDS011;67722;50.204;8.570;2023-03-05T13:22:17;5.15;;;1.95;;
78426;SDS011;67722;50.204;8.570;2023-03-05T13:24:42;2.88;;;2.25;;
78426;SDS011;67722;50.204;8.570;2023-03-05T13:27:18;4.47;;;1.85;;
78426;SDS011;67722;50.204;8.570;2023-03-05T13:29:54;2.40;;;2.03;;
78426;SDS011;67722;50.204;8.570;2023-03-05T13:32:24;2.08;;;1.55;;
78426;SDS011;67722;50.204;8.570;2023-03-05T13:34:51;2.67;;;1.38;;
78426;SDS011;67722;50.204;8.570;2023-03-05T13:37:19;4.78;;;2.38;;
78426;SDS011;67722;50.204;8.570;2023-03-05T13:39:47;2.25;;;1.98;;
78426;SDS011;67722;50.204;8.570;2023-03-05T13:44:55;1.92;;;1.13;;
78426;SDS011;67722;50.204;8.570;2023-03-05T13:47:26;1.95;;;1.48;;
78426;SDS011;67722;50.204;8.570;2023-03-05T13:49:56;2.30;;;1.45;;
78426;SDS011;67722;50.204;8.570;2023-03-05T13:52:31;2.22;;;1.80;;
78426;SDS011;67722;50.204;8.570;2023-03-05T13:54:59;2.42;;;1.13;;
78426;SDS011;67722;50.204;8.570;2023-03-05T13:57:45;1.90;;;1.20;;
78426;SDS011;67722;50.204;8.570;2023-03-05T14:00:34;1.67;;;1.10;;
78426;SDS011;67722;50.204;8.570;2023-03-05T14:05:53;4.40;;;2.45;;
78426;SDS011;67722;50.204;8.570;2023-03-05T14:08:22;1.23;;;1.13;;
78426;SDS011;67722;50.204;8.570;2023-03-05T14:10:49;2.08;;;1.30;;
78426;SDS011;67722;50.204;8.570;2023-03-05T14:13:19;2.50;;;1.02;;
78426;SDS011;67722;50.204;8.570;2023-03-05T14:18:34;2.65;;;1.38;;
78426;SDS011;67722;50.204;8.570;2023-03-05T14:28:35;1.40;;;0.98;;
78426;SDS011;67722;50.204;8.570;2023-03-05T14:31:01;1.73;;;1.33;;
78426;SDS011;67722;50.204;8.570;2023-03-05T14:33:28;1.60;;;1.48;;
78426;SDS011;67722;50.204;8.570;2023-03-05T14:35:55;2.80;;;1.13;;
78426;SDS011;67722;50.204;8.570;2023-03-05T14:38:25;3.60;;;1.83;;
78426;SDS011;67722;50.204;8.570;2023-03-05T14:40:52;2.47;;;1.10;;
78426;SDS011;67722;50.204;8.570;2023-03-05T14:43:18;2.42;;;1.40;;
78426;SDS011;67722;50.204;8.570;2023-03-05T14:45:43;2.83;;;1.73;;
78426;SDS011;67722;50.204;8.570;2023-03-05T14:48:09;1.65;;;1.38;;
78426;SDS011;67722;50.204;8.570;2023-03-05T14:50:38;2.40;;;1.88;;
78426;SDS011;67722;50.204;8.570;2023-03-05T14:53:20;3.00;;;1.20;;
78426;SDS011;67722;50.204;8.570;2023-03-05T14:55:47;2.38;;;1.30;;
78426;SDS011;67722;50.204;8.570;2023-03-05T14:58:16;2.20;;;1.98;;
78426;SDS011;67722;50.204;8.570;2023-03-05T15:00:45;1.58;;;1.02;;
78426;SDS011;67722;50.204;8.570;2023-03-05T15:03:11;3.33;;;2.20;;
78426;SDS011;67722;50.204;8.570;2023-03-05T15:05:38;2.03;;;1.67;;
78426;SDS011;67722;50.204;8.570;2023-03-05T15:08:03;3.17;;;1.95;;
78426;SDS011;67722;50.204;8.570;2023-03-05T15:10:29;3.38;;;1.30;;
78426;SDS011;67722;50.204;8.570;2023-03-05T15:12:55;3.08;;;2.00;;
78426;SDS011;67722;50.204;8.570;2023-03-05T15:15:20;2.63;;;2.22;;
78426;SDS011;67722;50.204;8.570;2023-03-05T15:17:47;5.20;;;2.03;;
78426;SDS011;67722;50.204;8.570;2023-03-05T15:20:19;2.22;;;1.48;;
78426;SDS011;67722;50.204;8.570;2023-03-05T15:22:47;3.58;;;2.40;;
78426;SDS011;67722;50.204;8.570;2023-03-05T15:25:13;2.87;;;1.80;;
78426;SDS011;67722;50.204;8.570;2023-03-05T15:27:38;4.68;;;2.35;;
78426;SDS011;67722;50.204;8.570;2023-03-05T15:30:05;4.97;;;0.93;;
78426;SDS011;67722;50.204;8.570;2023-03-05T15:32:45;3.15;;;2.13;;
78426;SDS011;67722;50.204;8.570;2023-03-05T15:35:10;5.70;;;2.23;;
78426;SDS011;67722;50.204;8.570;2023-03-05T15:37:36;3.22;;;1.88;;
78426;SDS011;67722;50.204;8.570;2023-03-05T15:40:01;3.40;;;1.90;;
78426;SDS011;67722;50.204;8.570;2023-03-05T15:42:26;7.45;;;4.22;;
78426;SDS011;67722;50.204;8.570;2023-03-05T15:44:52;4.33;;;2.37;;
78426;SDS011;67722;50.204;8.570;2023-03-05T15:47:17;4.07;;;2.47;;
78426;SDS011;67722;50.204;8.570;2023-03-05T15:49:42;5.10;;;3.33;;
78426;SDS011;67722;50.204;8.570;2023-03-05T15:52:08;3.43;;;2.23;;
78426;SDS011;67722;50.204;8.570;2023-03-05T15:54:34;4.18;;;2.50;;
78426;SDS011;67722;50.204;8.570;2023-03-05T15:57:00;2.63;;;2.05;;
78426;SDS011;67722;50.204;8.570;2023-03-05T15:59:25;6.53;;;2.55;;
78426;SDS011;67722;50.204;8.570;2023-03-05T16:01:51;3.90;;;2.25;;
78426;SDS011;67722;50.204;8.570;2023-03-05T16:04:17;2.72;;;2.10;;
78426;SDS011;67722;50.204;8.570;2023-03-05T16:06:45;7.05;;;2.72;;
78426;SDS011;67722;50.204;8.570;2023-03-05T16:09:12;4.38;;;2.10;;
78426;SDS011;67722;50.204;8.570;2023-03-05T16:11:38;5.25;;;2.45;;
78426;SDS011;67722;50.204;8.570;2023-03-05T16:14:06;5.72;;;2.70;;
78426;SDS011;67722;50.204;8.570;2023-03-05T16:16:33;5.70;;;3.80;;
78426;SDS011;67722;50.204;8.570;2023-03-05T16:19:00;4.95;;;3.00;;
78426;SDS011;67722;50.204;8.570;2023-03-05T16:21:26;3.85;;;2.42;;
78426;SDS011;67722;50.204;8.570;2023-03-05T16:23:52;3.53;;;2.15;;
78426;SDS011;67722;50.204;8.570;2023-03-05T16:26:17;4.18;;;2.42;;
78426;SDS011;67722;50.204;8.570;2023-03-05T16:28:43;5.53;;;2.92;;
78426;SDS011;67722;50.204;8.570;2023-03-05T16:31:08;5.32;;;3.05;;
78426;SDS011;67722;50.204;8.570;2023-03-05T16:33:34;7.18;;;2.38;;
78426;SDS011;67722;50.204;8.570;2023-03-05T16:38:42;2.95;;;2.25;;
78426;SDS011;67722;50.204;8.570;2023-03-05T16:41:07;3.93;;;1.93;;
78426;SDS011;67722;50.204;8.570;2023-03-05T16:43:33;5.87;;;2.33;;